• Join FlightAware (Why Join?)
  • Login
  • US Flag 
10:49AM EDT


 

Airport Tracker/Info


-or-


 

Live Flight TrackerFlight Track Log ✈ N70AG ✈ 12-Jun-2013 ✈ KFNL - KSCK

Flight Track Log - Related Links

Times and Time Zones

All times are in EDT time to prevent confusion due to time zone crossing. See the N70AG flight status page for this flight to view local times or setup timezone preferences in your user account.

Time Position Orientation Groundspeed Altitude Reporting Facility
EDT Latitude Longitude Course Direction KTS MPH feet Rate Location/Type
03:46PM 40.4167 -105.0000 241° Southwest 189 217 6,800  Level Denver TRACON
03:47PM 40.3667 -104.9667 153° Southeast 238 274 9,600 2,880 Climbing Denver TRACON
03:48PM 40.3425 -104.9647 176° South 237 273 10,700 2,880 Climbing Denver Center
03:49PM 40.2722 -104.9242 156° South 276 318 13,600 2,580 Climbing Denver Center
03:50PM 40.1792 -104.9067 172° South 317 365 16,100 2,400 Climbing Denver Center
03:51PM 40.0917 -104.9403 196° South 335 386 18,600 2,460 Climbing Denver Center
03:52PM 40.1070 -105.5948 241° Southwest  Level FlightAware Approximate
03:52PM 40.0628 -105.0686 254° West 363 418 21,300  Level Denver Center
03:53PM 40.0436 -105.2092 260° West 379 436 24,000 2,700 Climbing Denver Center
03:54PM 40.0200 -105.3769 260° West 401 461 27,400 3,120 Climbing Denver Center
03:55PM 40.0083 -105.5186 264° West 400 460 30,500 3,000 Climbing Denver Center
03:56PM 40.0000 -105.6528 265° West 376 433 33,600 2,700 Climbing Denver Center
03:57PM 39.9897 -105.7864 264° West 373 429 36,100 1,620 Climbing Denver Center
03:58PM 39.9794 -105.9447 265° West 369 425 37,000 420 Climbing Denver Center
03:59PM 39.9697 -106.0914 265° West 400 460 37,000  Level Denver Center
04:00PM 39.9572 -106.2364 264° West 404 465 37,000  Level Denver Center
04:01PM 39.9469 -106.3808 265° West 403 464 37,000  Level Denver Center
04:02PM 39.9361 -106.5392 265° West 421 484 37,000 960 Level Denver Center
04:03PM 39.9239 -106.6933 264° West 430 495 39,000 1,320 Climbing Denver Center
04:04PM 39.9117 -106.8444 264° West 424 488 39,800 480 Climbing Denver Center
04:05PM 39.8986 -107.0008 264° West 434 499 40,000 300 Climbing Denver Center
04:06PM 39.8861 -107.1569 264° West 436 502 40,500 720 Climbing Denver Center
04:07PM 39.8717 -107.3247 264° West 431 496 41,500 900 Climbing Denver Center
04:08PM 39.8569 -107.5022 264° West 439 505 42,400 600 Climbing Denver Center
04:09PM 39.8442 -107.6542 264° West 441 507 42,800 240 Climbing Denver Center
04:11PM 39.8286 -107.8350 264° West 449 517 43,000 60 Climbing Denver Center
04:12PM 39.8125 -107.9892 262° West 452 520 43,000  Level Denver Center
04:13PM 39.7967 -108.1647 263° West 439 505 43,000  Level Denver Center
04:14PM 39.7825 -108.3183 263° West 447 514 43,000  Level Denver Center
04:15PM 39.7692 -108.4653 263° West 430 495 43,000  Level Denver Center
04:16PM 39.7528 -108.6392 263° West 434 499 43,000  Level Denver Center
04:17PM 39.7397 -108.7881 264° West 444 511 43,000  Level Denver Center
04:18PM 39.7214 -108.9614 262° West 444 511 43,000  Level Denver Center
04:19PM 39.7031 -109.1344 262° West 438 504 43,000  Level Denver Center
04:19PM 39.6978 -109.1839 262° West 436 502 43,000  Level Salt Lake Center
04:20PM 39.6803 -109.3589 263° West 439 505 43,000  Level Salt Lake Center
04:21PM 39.6725 -109.4331 262° West 437 503 43,000  Level Denver Center
04:22PM 39.6544 -109.6056 262° West 433 498 43,000  Level Denver Center
04:22PM 39.6461 -109.6817 262° West 438 504 43,000  Level Salt Lake Center
04:23PM 39.6306 -109.8286 262° West 432 497 43,000  Level Salt Lake Center
04:24PM 39.6122 -110.0031 262° West 435 501 43,000  Level Salt Lake Center
04:25PM 39.5964 -110.1517 262° West 435 501 43,000  Level Salt Lake Center
04:26PM 39.5808 -110.3000 262° West 435 501 43,000  Level Salt Lake Center
04:27PM 39.5611 -110.4761 262° West 442 509 43,000  Level Salt Lake Center
04:28PM 39.5439 -110.6314 262° West 452 520 43,000  Level Salt Lake Center
04:29PM 39.5225 -110.8086 261° West 448 516 43,000  Level Salt Lake Center
04:31PM 39.5058 -110.9583 262° West 441 507 43,000  Level Salt Lake Center
04:32PM 39.4853 -111.1300 261° West 434 499 43,000  Level Salt Lake Center
04:33PM 39.4669 -111.2864 261° West 441 507 43,000  Level Salt Lake Center
04:34PM 39.4478 -111.4483 261° West 453 521 43,000  Level Salt Lake Center
04:35PM 39.4286 -111.6058 261° West 446 513 43,000  Level Salt Lake Center
04:36PM 39.4075 -111.7603 260° West 439 505 43,000  Level Salt Lake Center
04:37PM 39.3869 -111.9208 261° West 451 519 43,000 -60 Level Salt Lake Center
04:38PM 39.3681 -112.0808 261° West 450 518 42,900  Descending Salt Lake Center
04:39PM 39.3442 -112.2603 260° West 423 487 43,000  Climbing Salt Lake Center
04:40PM 39.3272 -112.4144 262° West 430 495 43,000  Level Salt Lake Center
04:41PM 39.3061 -112.5697 260° West 434 499 43,000  Level Salt Lake Center
04:42PM 39.2842 -112.7300 260° West 441 507 43,000  Level Salt Lake Center
04:43PM 39.2639 -112.8789 260° West 431 496 43,000  Level Salt Lake Center
04:44PM 39.2436 -113.0292 260° West 428 493 43,000  Level Salt Lake Center
04:45PM 39.2228 -113.1800 260° West 430 495 43,000  Level Salt Lake Center
04:46PM 39.2017 -113.3292 260° West 426 490 43,000  Level Salt Lake Center
04:47PM 39.1772 -113.5075 260° West 425 489 43,000  Level Salt Lake Center
04:48PM 39.1558 -113.6567 260° West 424 488 43,000  Level Salt Lake Center
04:49PM 39.1361 -113.8042 260° West 423 487 43,000  Level Salt Lake Center
04:50PM 39.1136 -113.9522 259° West 422 486 43,000  Level Salt Lake Center
04:51PM 39.0936 -114.0992 260° West 420 483 43,000  Level Salt Lake Center
04:52PM 39.0719 -114.2467 259° West 422 486 43,000  Level Salt Lake Center
04:53PM 39.0500 -114.3950 259° West 425 489 43,000  Level Salt Lake Center
04:54PM 39.0236 -114.5761 259° West 430 495 43,000  Level Salt Lake Center
04:55PM 39.0014 -114.7214 259° West 420 483 43,000  Level Salt Lake Center
04:56PM 38.9781 -114.8697 259° West 424 488 43,000  Level Salt Lake Center
04:57PM 38.9556 -115.0211 259° West 430 495 43,000  Level Salt Lake Center
04:58PM 38.9317 -115.1731 259° West 434 499 43,000  Level Salt Lake Center
04:59PM 38.9083 -115.3239 259° West 432 497 43,000  Level Salt Lake Center
05:00PM 38.8817 -115.4847 258° West 439 505 43,000  Level Salt Lake Center
05:01PM 38.8592 -115.6369 259° West 436 502 43,000  Level Salt Lake Center
05:02PM 38.8336 -115.7881 258° West 434 499 43,000  Level Salt Lake Center
05:03PM 38.8047 -115.9703 259° West 435 501 43,000  Level Salt Lake Center
05:04PM 38.7797 -116.1247 258° West 441 507 43,000  Level Salt Lake Center
05:05PM 38.7544 -116.2764 258° West 438 504 43,000  Level Salt Lake Center
05:06PM 38.7303 -116.4281 259° West 436 502 43,000  Level Salt Lake Center
05:07PM 38.7042 -116.5786 258° West 435 501 43,000  Level Salt Lake Center
05:09PM 38.6783 -116.7331 258° West 442 509 43,000  Level Salt Lake Center
05:10PM 38.6528 -116.8861 258° West 443 510 43,000  Level Salt Lake Center
05:11PM 38.6208 -117.0694 257° West 443 510 43,000  Level Salt Lake Center
05:12PM 38.5939 -117.2261 258° West 452 520 43,000  Level Salt Lake Center
05:13PM 38.5675 -117.3808 258° West 451 519 43,000  Level Salt Lake Center
05:14PM 38.5400 -117.5333 257° West 446 513 43,000 -420 Level Salt Lake Center
05:15PM 38.5139 -117.6850 258° West 442 509 42,200 -900 Descending Salt Lake Center
05:16PM 38.4869 -117.8367 257° West 440 506 41,200 -1,080 Descending Salt Lake Center
05:17PM 38.4542 -118.0192 257° West 441 507 40,000 -1,080 Descending Salt Lake Center
05:18PM 38.4267 -118.1661 257° West 430 495 39,000 -1,020 Descending Salt Lake Center
05:19PM 38.3914 -118.3033 252° West 414 476 37,900 -1,260 Descending Salt Lake Center
05:20PM 38.3486 -118.4264 246° West 417 480 36,500 -1,620 Descending Salt Lake Center
05:21PM 38.2878 -118.5925 245° Southwest 425 489 34,400 -1,920 Descending Oakland Center
05:22PM 38.2392 -118.7272 245° Southwest 420 483 32,400 -2,040 Descending Oakland Center
05:23PM 38.1883 -118.8661 245° Southwest 427 491 30,300 -1,200 Descending Oakland Center
05:24PM 38.1369 -119.0108 246° West 442 509 30,000 -600 Descending Oakland Center
05:25PM 38.1108 -119.1869 259° West 464 534 29,100 -1,200 Descending Oakland Center
05:26PM 38.0892 -119.3539 261° West 474 545 27,600 -1,980 Descending Oakland Center
05:27PM 38.0708 -119.5017 261° West 436 502 25,100 -2,400 Descending Oakland Center
05:28PM 38.0536 -119.6419 261° West 409 471 22,700 -2,400 Descending Oakland Center
05:29PM 38.0336 -119.7814 260° West 404 465 20,300 -2,640 Descending Oakland Center
05:30PM 38.0128 -119.9431 261° West 390 449 17,400 -2,640 Descending Oakland Center
05:31PM 37.9944 -120.0758 260° West 383 441 15,000 -1,680 Descending Oakland Center
05:32PM 37.9750 -120.2081 259° West 382 440 14,000 -600 Descending Oakland Center
05:33PM 37.9547 -120.3383 259° West 377 434 13,900 -960 Descending Oakland Center
05:34PM 37.9364 -120.4692 260° West 376 433 12,100 -1,800 Descending Oakland Center
05:35PM 37.9181 -120.5903 259° West 361 415 10,300 -1,800 Descending Oakland Center
05:36PM 37.9050 -120.6925 261° West 312 359 8,500 -1,800 Descending Oakland Center
05:37PM 37.8900 -120.7906 259° West 291 335 6,700 -1,800 Descending Oakland Center
05:38PM 37.8756 -120.8847 259° West 278 320 4,900 -1,860 Descending Oakland Center
05:39PM 37.8667 -121.0000 264° West 261 300 3,000 -1,140 Descending Northern Cal TRACON
05:40PM 37.8500 -121.0833 256° West 242 278 2,700 -600 Descending Northern Cal TRACON
05:41PM 37.8500 -121.1500 270° West 200 230 1,800 -1,140 Descending Northern Cal TRACON
05:42PM 37.8667 -121.2000 293° West 159 183 600 -1,380 Descending Northern Cal TRACON
05:45PM 37.8833 -121.2333 314° West  Level FlightAware Approximate
05:52PM 37.8942 -121.2383 314° West  Level Estimated
05:53PM 37.8942 -121.2383 314° West  Level Estimated